createdAt,value
2022-10-23T00:01:01.756Z,3.38
2022-10-23T00:03:29.648Z,3.13
2022-10-23T00:05:58.851Z,2.67
2022-10-23T00:08:26.818Z,2.63
2022-10-23T00:10:54.715Z,3.10
2022-10-23T00:13:22.710Z,3.03
2022-10-23T00:15:53.595Z,2.30
2022-10-23T00:18:21.477Z,2.47
2022-10-23T00:20:49.353Z,2.63
2022-10-23T00:23:18.889Z,2.25
2022-10-23T00:25:46.788Z,2.88
2022-10-23T00:28:14.702Z,2.50
2022-10-23T00:30:42.659Z,2.15
2022-10-23T00:33:11.110Z,2.72
2022-10-23T00:35:40.858Z,2.83
2022-10-23T00:38:08.842Z,3.53
2022-10-23T00:40:38.628Z,2.75
2022-10-23T00:43:08.218Z,3.30
2022-10-23T00:45:36.139Z,2.63
2022-10-23T00:48:04.892Z,2.70
2022-10-23T00:50:34.401Z,3.00
2022-10-23T00:53:05.166Z,2.70
2022-10-23T00:55:34.333Z,3.63
2022-10-23T00:58:04.146Z,3.22
2022-10-23T01:00:42.733Z,2.72
2022-10-23T01:03:10.711Z,2.70
2022-10-23T01:05:45.807Z,2.80
2022-10-23T01:08:21.202Z,2.70
2022-10-23T01:10:55.280Z,2.80
2022-10-23T01:13:36.310Z,3.20
2022-10-23T01:16:12.905Z,3.08
2022-10-23T01:18:45.608Z,2.55
2022-10-23T01:21:19.479Z,3.25
2022-10-23T01:24:08.869Z,2.97
2022-10-23T01:26:48.642Z,4.03
2022-10-23T01:29:23.002Z,2.55
2022-10-23T01:31:57.437Z,2.88
2022-10-23T01:34:31.768Z,2.67
2022-10-23T01:37:03.970Z,2.97
2022-10-23T01:39:36.944Z,3.03
2022-10-23T01:42:09.649Z,3.05
2022-10-23T01:44:42.940Z,2.97
2022-10-23T01:47:14.313Z,2.70
2022-10-23T01:50:02.080Z,2.80
2022-10-23T01:52:30.419Z,2.70
2022-10-23T01:55:01.886Z,3.20
2022-10-23T01:57:35.231Z,3.28
2022-10-23T02:00:08.520Z,2.75
2022-10-23T02:02:53.448Z,3.40
2022-10-23T02:05:27.480Z,3.78
2022-10-23T02:07:57.215Z,3.13
2022-10-23T02:10:30.941Z,3.80
2022-10-23T02:13:04.376Z,3.15
2022-10-23T02:15:37.357Z,3.03
2022-10-23T02:18:10.642Z,4.38
2022-10-23T02:20:41.683Z,3.25
2022-10-23T02:23:18.709Z,3.13
2022-10-23T02:25:54.079Z,3.10
2022-10-23T02:28:27.540Z,3.60
2022-10-23T02:31:03.590Z,3.42
2022-10-23T02:33:33.813Z,3.75
2022-10-23T02:36:01.724Z,3.47
2022-10-23T02:38:36.715Z,3.85
2022-10-23T02:41:18.919Z,3.80
2022-10-23T02:43:58.245Z,3.72
2022-10-23T02:46:35.912Z,4.55
2022-10-23T02:49:11.624Z,3.83
2022-10-23T02:51:54.010Z,4.80
2022-10-23T02:54:41.128Z,5.57
2022-10-23T02:57:17.186Z,3.90
2022-10-23T02:59:53.490Z,4.22
2022-10-23T03:02:26.719Z,3.92
2022-10-23T03:04:56.910Z,4.03
2022-10-23T03:07:27.441Z,3.60
2022-10-23T03:10:03.379Z,3.63
2022-10-23T03:12:32.975Z,4.13
2022-10-23T03:15:00.943Z,4.13
2022-10-23T03:17:30.218Z,3.70
2022-10-23T03:20:00.906Z,3.88
2022-10-23T03:22:28.846Z,4.20
2022-10-23T03:24:57.316Z,3.95
2022-10-23T03:27:25.331Z,4.00
2022-10-23T03:29:55.949Z,3.80
2022-10-23T03:32:24.073Z,3.72
2022-10-23T03:34:53.350Z,3.72
2022-10-23T03:37:23.178Z,4.90
2022-10-23T03:39:51.896Z,3.92
2022-10-23T03:42:19.920Z,3.60
2022-10-23T03:44:47.906Z,4.13
2022-10-23T03:47:15.834Z,4.38
2022-10-23T03:49:43.744Z,5.30
2022-10-23T03:52:13.165Z,3.75
2022-10-23T03:54:41.116Z,4.72
2022-10-23T03:57:09.031Z,4.57
2022-10-23T03:59:37.044Z,4.00
2022-10-23T04:02:07.006Z,4.63
2022-10-23T04:04:35.190Z,4.05
2022-10-23T04:07:03.172Z,4.72
2022-10-23T04:09:32.476Z,3.67
2022-10-23T04:12:00.406Z,3.92
2022-10-23T04:14:29.810Z,4.00
2022-10-23T04:16:57.794Z,3.60
2022-10-23T04:19:25.762Z,3.88
2022-10-23T04:21:57.165Z,3.72
2022-10-23T04:24:25.996Z,3.90
2022-10-23T04:26:55.361Z,4.05
2022-10-23T04:29:24.597Z,3.22
2022-10-23T04:31:52.777Z,3.55
2022-10-23T04:34:20.874Z,4.10
2022-10-23T04:36:49.020Z,3.58
2022-10-23T04:39:18.225Z,3.20
2022-10-23T04:41:46.243Z,4.05
2022-10-23T04:44:15.714Z,3.60
2022-10-23T04:46:44.006Z,3.45
2022-10-23T04:49:11.964Z,4.13
2022-10-23T04:51:58.491Z,3.55
2022-10-23T04:54:50.910Z,3.42
2022-10-23T04:57:30.871Z,3.55
2022-10-23T05:00:09.760Z,3.80
2022-10-23T05:02:45.154Z,3.47
2022-10-23T05:05:17.626Z,4.13
2022-10-23T05:08:06.015Z,3.97
2022-10-23T05:10:57.100Z,4.30
2022-10-23T05:13:24.989Z,4.53
2022-10-23T05:15:54.988Z,4.60
2022-10-23T05:18:27.357Z,3.28
2022-10-23T05:21:00.323Z,3.72
2022-10-23T05:23:31.138Z,3.58
2022-10-23T05:26:03.197Z,3.30
2022-10-23T05:28:32.369Z,3.40
2022-10-23T05:31:04.466Z,3.78
2022-10-23T05:33:33.843Z,4.63
2022-10-23T05:36:02.609Z,3.42
2022-10-23T05:38:34.574Z,3.35
2022-10-23T05:41:07.521Z,3.55
2022-10-23T05:43:35.544Z,3.58
2022-10-23T05:46:19.942Z,3.33
2022-10-23T05:49:26.706Z,4.20
2022-10-23T05:52:29.805Z,3.75
2022-10-23T05:55:17.033Z,4.05
2022-10-23T05:58:03.820Z,4.47
2022-10-23T06:00:50.229Z,3.83
2022-10-23T06:03:45.362Z,4.28
2022-10-23T06:06:14.030Z,3.38
2022-10-23T06:08:47.827Z,3.45
2022-10-23T06:11:16.462Z,3.95
2022-10-23T06:13:52.186Z,4.32
2022-10-23T06:16:25.439Z,4.32
2022-10-23T06:18:55.194Z,3.97
2022-10-23T06:21:23.133Z,4.13
2022-10-23T06:23:51.919Z,4.00
2022-10-23T06:26:38.027Z,4.03
2022-10-23T06:29:09.874Z,4.47
2022-10-23T06:31:38.918Z,4.22
2022-10-23T06:34:11.777Z,4.53
2022-10-23T06:36:40.044Z,3.60
2022-10-23T06:39:29.763Z,4.15
2022-10-23T06:42:20.257Z,4.15
2022-10-23T06:44:57.209Z,4.68
2022-10-23T06:47:40.217Z,4.57
2022-10-23T06:50:25.930Z,3.63
2022-10-23T06:52:54.618Z,3.97
2022-10-23T06:55:23.533Z,3.72
2022-10-23T06:57:52.340Z,4.10
2022-10-23T07:00:21.506Z,3.30
2022-10-23T07:02:54.179Z,3.42
2022-10-23T07:05:24.983Z,3.90
2022-10-23T07:07:53.360Z,3.38
2022-10-23T07:10:26.362Z,3.67
2022-10-23T07:13:01.080Z,3.35
2022-10-23T07:15:49.572Z,3.63
2022-10-23T07:18:23.822Z,3.70
2022-10-23T07:21:12.127Z,2.80
2022-10-23T07:23:41.208Z,3.72
2022-10-23T07:26:10.589Z,3.00
2022-10-23T07:28:38.902Z,2.53
2022-10-23T07:31:07.108Z,3.55
2022-10-23T07:34:04.138Z,3.13
2022-10-23T07:36:33.452Z,3.45
2022-10-23T07:39:01.535Z,3.55
2022-10-23T07:41:29.553Z,2.70
2022-10-23T07:43:57.545Z,2.85
2022-10-23T07:46:25.479Z,3.38
2022-10-23T07:48:53.810Z,3.47
2022-10-23T07:51:22.780Z,3.53
2022-10-23T07:53:58.045Z,2.90
2022-10-23T07:56:49.018Z,2.45
2022-10-23T07:59:38.094Z,2.85
2022-10-23T08:02:13.046Z,2.58
2022-10-23T08:04:42.525Z,2.60
2022-10-23T08:07:36.544Z,2.80
2022-10-23T08:10:07.164Z,2.97
2022-10-23T08:12:38.246Z,2.40
2022-10-23T08:15:07.202Z,2.05
2022-10-23T08:17:47.299Z,2.63
2022-10-23T08:20:18.531Z,2.22
2022-10-23T08:22:47.217Z,1.90
2022-10-23T08:25:25.000Z,1.75
2022-10-23T08:30:21.956Z,2.25
2022-10-23T08:32:49.924Z,2.30
2022-10-23T08:35:18.146Z,2.10
2022-10-23T08:37:46.193Z,2.25
2022-10-23T08:40:16.782Z,1.40
2022-10-23T08:43:09.250Z,2.03
2022-10-23T08:45:45.970Z,1.90
2022-10-23T08:48:38.777Z,1.60
2022-10-23T08:51:43.746Z,1.90
2022-10-23T08:54:15.858Z,1.90
2022-10-23T08:56:48.166Z,1.55
2022-10-23T08:59:26.238Z,1.70
2022-10-23T09:01:59.254Z,1.67
2022-10-23T09:04:27.502Z,2.17
2022-10-23T09:07:02.220Z,1.80
2022-10-23T09:09:49.737Z,1.55
2022-10-23T09:12:21.613Z,1.67
2022-10-23T09:15:17.301Z,1.40
2022-10-23T09:17:46.272Z,1.55
2022-10-23T09:20:20.386Z,1.30
2022-10-23T09:22:49.968Z,1.52
2022-10-23T09:25:20.831Z,1.73
2022-10-23T09:27:53.291Z,1.25
2022-10-23T09:30:33.741Z,1.83
2022-10-23T09:33:13.191Z,1.42
2022-10-23T09:35:53.594Z,1.40
2022-10-23T09:38:28.637Z,1.58
2022-10-23T09:40:56.959Z,1.20
2022-10-23T09:43:28.068Z,1.55
2022-10-23T09:46:06.158Z,1.63
2022-10-23T09:48:35.921Z,1.35
2022-10-23T09:51:05.811Z,1.15
2022-10-23T09:53:36.545Z,1.38
2022-10-23T09:56:07.840Z,1.35
2022-10-23T09:58:39.176Z,1.30
2022-10-23T10:01:23.837Z,1.20
2022-10-23T10:03:54.815Z,1.40
2022-10-23T10:06:28.262Z,1.20
2022-10-23T10:08:58.615Z,1.50
2022-10-23T10:11:32.303Z,1.13
2022-10-23T10:14:14.812Z,2.20
2022-10-23T10:16:52.368Z,1.42
2022-10-23T10:19:32.541Z,1.30
2022-10-23T10:22:08.842Z,1.10
2022-10-23T10:24:43.305Z,1.05
2022-10-23T10:27:20.836Z,1.00
2022-10-23T10:30:02.743Z,1.15
2022-10-23T10:32:40.719Z,1.10
2022-10-23T10:35:23.578Z,1.20
2022-10-23T10:38:10.180Z,1.08
2022-10-23T10:40:42.547Z,1.25
2022-10-23T10:43:21.741Z,1.30
2022-10-23T10:48:33.565Z,1.40
2022-10-23T10:51:27.959Z,1.10
2022-10-23T10:54:20.179Z,1.10
2022-10-23T10:56:49.509Z,1.58
2022-10-23T10:59:24.300Z,0.80
2022-10-23T11:01:59.040Z,1.40
2022-10-23T11:04:38.001Z,0.95
2022-10-23T11:07:12.539Z,1.48
2022-10-23T11:09:41.186Z,1.00
2022-10-23T11:12:18.757Z,1.10
2022-10-23T11:14:46.932Z,1.52
2022-10-23T11:17:19.687Z,1.05
2022-10-23T11:19:57.632Z,1.10
2022-10-23T11:22:33.964Z,1.42
2022-10-23T11:25:22.486Z,1.25
2022-10-23T11:28:08.546Z,1.20
2022-10-23T11:30:49.636Z,0.90
2022-10-23T11:34:03.192Z,0.80
2022-10-23T11:36:43.917Z,0.82
2022-10-23T11:39:23.494Z,1.10
2022-10-23T11:41:54.606Z,1.83
2022-10-23T11:44:41.390Z,1.30
2022-10-23T11:47:28.311Z,1.20
2022-10-23T11:50:14.301Z,1.13
2022-10-23T11:53:13.076Z,1.15
2022-10-23T11:55:58.202Z,1.50
2022-10-23T11:58:31.545Z,1.17
2022-10-23T12:01:05.279Z,0.95
2022-10-23T12:03:43.527Z,1.15
2022-10-23T12:06:22.031Z,1.00
2022-10-23T12:08:56.009Z,1.10
2022-10-23T12:11:27.755Z,1.30
2022-10-23T12:13:56.138Z,1.00
2022-10-23T12:16:34.922Z,1.27
2022-10-23T12:19:18.848Z,1.75
2022-10-23T12:21:47.715Z,1.58
2022-10-23T12:24:39.993Z,1.30
2022-10-23T12:27:19.812Z,1.40
2022-10-23T12:30:10.655Z,1.70
2022-10-23T12:32:54.249Z,1.13
2022-10-23T12:35:56.536Z,1.40
2022-10-23T12:38:26.797Z,1.27
2022-10-23T12:41:01.571Z,1.13
2022-10-23T12:43:32.394Z,1.08
2022-10-23T12:46:04.903Z,1.00
2022-10-23T12:48:34.888Z,1.10
2022-10-23T12:51:02.899Z,1.20
2022-10-23T12:53:30.835Z,1.15
2022-10-23T12:56:04.138Z,1.02
2022-10-23T12:58:34.154Z,1.23
2022-10-23T13:01:07.005Z,1.10
2022-10-23T13:03:36.238Z,0.93
2022-10-23T13:06:04.657Z,1.10
2022-10-23T13:08:35.734Z,1.05
2022-10-23T13:11:26.795Z,1.50
2022-10-23T13:13:57.390Z,1.38
2022-10-23T13:16:26.705Z,2.60
2022-10-23T13:18:54.684Z,1.27
2022-10-23T13:21:24.872Z,1.23
2022-10-23T13:23:53.707Z,1.20
2022-10-23T13:26:30.527Z,1.35
2022-10-23T13:28:59.183Z,1.15
2022-10-23T13:31:30.772Z,1.15
2022-10-23T13:34:17.776Z,0.80
2022-10-23T13:36:55.520Z,1.00
2022-10-23T13:39:25.590Z,1.10
2022-10-23T13:41:54.961Z,1.10
2022-10-23T13:44:26.291Z,1.40
2022-10-23T13:46:54.951Z,1.02
2022-10-23T13:49:23.120Z,1.20
2022-10-23T13:51:53.360Z,1.23
2022-10-23T13:54:23.166Z,2.25
2022-10-23T13:56:51.895Z,0.90
2022-10-23T13:59:21.354Z,1.90
2022-10-23T14:01:50.695Z,1.75
2022-10-23T14:04:19.740Z,2.47
2022-10-23T14:06:48.173Z,0.95
2022-10-23T14:09:18.017Z,1.20
2022-10-23T14:11:46.086Z,1.30
2022-10-23T14:14:14.040Z,1.30
2022-10-23T14:16:43.251Z,0.90
2022-10-23T14:19:12.109Z,1.77
2022-10-23T14:21:40.005Z,1.02
2022-10-23T14:24:08.254Z,1.10
2022-10-23T14:26:36.230Z,1.00
2022-10-23T14:29:10.188Z,0.98
2022-10-23T14:31:39.396Z,0.98
2022-10-23T14:34:13.468Z,1.35
2022-10-23T14:36:49.652Z,1.15
2022-10-23T14:39:18.112Z,1.20
2022-10-23T14:41:46.278Z,0.98
2022-10-23T14:44:14.555Z,1.10
2022-10-23T14:46:42.678Z,1.10
2022-10-23T14:49:11.992Z,1.00
2022-10-23T14:51:39.934Z,1.05
2022-10-23T14:54:09.136Z,1.23
2022-10-23T14:56:39.960Z,1.00
2022-10-23T14:59:09.172Z,1.00
2022-10-23T15:01:43.692Z,1.33
2022-10-23T15:04:17.067Z,1.23
2022-10-23T15:06:46.331Z,0.73
2022-10-23T15:09:14.861Z,1.65
2022-10-23T15:11:43.490Z,1.10
2022-10-23T15:14:11.506Z,1.08
2022-10-23T15:16:42.072Z,1.27
2022-10-23T15:19:13.714Z,1.25
2022-10-23T15:21:46.898Z,1.50
2022-10-23T15:24:15.119Z,1.08
2022-10-23T15:26:43.345Z,1.23
2022-10-23T15:29:12.389Z,1.17
2022-10-23T15:31:50.181Z,2.10
2022-10-23T15:34:19.894Z,1.30
2022-10-23T15:36:50.443Z,1.20
2022-10-23T15:39:21.567Z,1.20
2022-10-23T15:41:52.312Z,1.33
2022-10-23T15:44:22.331Z,1.30
2022-10-23T15:46:50.596Z,1.50
2022-10-23T15:49:19.247Z,1.02
2022-10-23T15:51:49.306Z,1.48
2022-10-23T15:54:19.616Z,1.08
2022-10-23T15:56:49.756Z,1.55
2022-10-23T15:59:19.931Z,1.40
2022-10-23T16:01:48.494Z,1.45
2022-10-23T16:04:19.572Z,1.17
2022-10-23T16:06:49.267Z,1.38
2022-10-23T16:09:17.915Z,1.60
2022-10-23T16:11:46.170Z,1.33
2022-10-23T16:14:15.897Z,1.15
2022-10-23T16:16:44.295Z,1.35
2022-10-23T16:19:12.970Z,1.20
2022-10-23T16:21:40.979Z,1.35
2022-10-23T16:24:11.030Z,1.17
2022-10-23T16:26:39.316Z,0.98
2022-10-23T16:29:09.356Z,1.40
2022-10-23T16:31:37.488Z,1.58
2022-10-23T16:34:06.595Z,1.10
2022-10-23T16:36:35.298Z,1.40
2022-10-23T16:39:07.145Z,2.05
2022-10-23T16:41:55.259Z,1.67
2022-10-23T16:44:27.209Z,3.38
2022-10-23T16:46:59.787Z,1.55
2022-10-23T16:49:29.754Z,1.23
2022-10-23T16:51:57.825Z,1.40
2022-10-23T16:54:25.875Z,1.60
2022-10-23T16:56:55.251Z,1.60
2022-10-23T16:59:23.205Z,1.15
2022-10-23T17:01:51.282Z,1.02
2022-10-23T17:04:19.745Z,1.30
2022-10-23T17:06:47.718Z,1.25
2022-10-23T17:09:15.721Z,1.00
2022-10-23T17:11:45.468Z,1.48
2022-10-23T17:14:17.396Z,1.85
2022-10-23T17:16:47.675Z,1.25
2022-10-23T17:19:43.313Z,1.10
2022-10-23T17:22:10.324Z,1.40
2022-10-23T17:24:38.583Z,1.40
2022-10-23T17:27:06.566Z,1.27
2022-10-23T17:29:36.517Z,1.27
2022-10-23T17:32:04.883Z,1.17
2022-10-23T17:34:32.808Z,1.23
2022-10-23T17:37:00.770Z,1.40
2022-10-23T17:39:30.076Z,1.60
2022-10-23T17:41:58.669Z,1.10
2022-10-23T17:44:26.702Z,1.50
2022-10-23T17:46:56.589Z,1.50
2022-10-23T17:49:26.177Z,1.10
2022-10-23T17:51:56.310Z,1.33
2022-10-23T17:54:26.010Z,2.47
2022-10-23T17:56:53.998Z,1.55
2022-10-23T17:59:21.994Z,1.27
2022-10-23T18:01:50.302Z,1.55
2022-10-23T18:04:21.289Z,1.60
2022-10-23T18:06:52.436Z,1.70
2022-10-23T18:09:20.976Z,2.80
2022-10-23T18:11:49.295Z,2.95
2022-10-23T18:14:18.322Z,1.35
2022-10-23T18:16:46.763Z,1.55
2022-10-23T18:19:14.881Z,1.25
2022-10-23T18:21:44.178Z,1.35
2022-10-23T18:24:12.587Z,1.20
2022-10-23T18:26:42.286Z,2.13
2022-10-23T18:29:12.036Z,1.42
2022-10-23T18:31:40.277Z,1.20
2022-10-23T18:34:12.915Z,3.13
2022-10-23T18:36:41.581Z,1.50
2022-10-23T18:39:14.268Z,2.00
2022-10-23T18:41:44.847Z,1.73
2022-10-23T18:44:16.838Z,2.08
2022-10-23T18:46:45.395Z,1.63
2022-10-23T18:49:14.196Z,1.80
2022-10-23T18:51:42.233Z,2.10
2022-10-23T18:54:13.720Z,1.52
2022-10-23T18:56:42.276Z,1.90
2022-10-23T18:59:14.056Z,1.70
2022-10-23T19:01:42.237Z,2.50
2022-10-23T19:04:12.566Z,2.38
2022-10-23T19:06:40.766Z,2.00
2022-10-23T19:09:13.651Z,2.28
2022-10-23T19:11:42.185Z,2.50
2022-10-23T19:14:10.664Z,2.17
2022-10-23T19:16:40.857Z,2.28
2022-10-23T19:19:16.402Z,2.08
2022-10-23T19:21:45.450Z,1.40
2022-10-23T19:24:19.195Z,1.80
2022-10-23T19:26:47.916Z,1.90
2022-10-23T19:29:19.611Z,1.40
2022-10-23T19:31:49.861Z,1.88
2022-10-23T19:34:19.974Z,2.35
2022-10-23T19:36:48.487Z,1.42
2022-10-23T19:39:18.877Z,3.10
2022-10-23T19:41:46.826Z,1.92
2022-10-23T19:44:15.812Z,1.70
2022-10-23T19:46:44.502Z,2.00
2022-10-23T19:49:12.786Z,1.90
2022-10-23T19:51:40.929Z,3.38
2022-10-23T19:54:10.546Z,2.20
2022-10-23T19:56:40.097Z,1.85
2022-10-23T19:59:08.489Z,1.88
2022-10-23T20:01:36.482Z,1.83
2022-10-23T20:04:04.602Z,2.58
2022-10-23T20:06:35.393Z,2.20
2022-10-23T20:09:07.928Z,2.10
2022-10-23T20:11:37.249Z,2.30
2022-10-23T20:14:07.132Z,2.20
2022-10-23T20:16:37.443Z,2.25
2022-10-23T20:19:07.247Z,3.50
2022-10-23T20:21:36.956Z,3.20
2022-10-23T20:24:05.475Z,3.13
2022-10-23T20:26:33.763Z,3.65
2022-10-23T20:29:01.729Z,2.80
2022-10-23T20:31:31.131Z,2.60
2022-10-23T20:33:59.210Z,2.15
2022-10-23T20:36:28.821Z,1.92
2022-10-23T20:38:57.947Z,2.45
2022-10-23T20:41:28.446Z,3.38
2022-10-23T20:43:57.044Z,2.45
2022-10-23T20:46:25.200Z,2.10
2022-10-23T20:48:54.695Z,2.33
2022-10-23T20:51:24.308Z,2.50
2022-10-23T20:53:53.064Z,2.72
2022-10-23T20:56:24.227Z,2.40
2022-10-23T20:58:52.198Z,2.50
2022-10-23T21:01:20.248Z,2.45
2022-10-23T21:03:51.237Z,2.63
2022-10-23T21:06:21.089Z,3.20
2022-10-23T21:08:49.063Z,2.80
2022-10-23T21:11:18.505Z,2.72
2022-10-23T21:13:46.441Z,2.58
2022-10-23T21:16:15.592Z,2.58
2022-10-23T21:18:46.489Z,3.30
2022-10-23T21:21:16.998Z,3.25
2022-10-23T21:23:46.983Z,3.88
2022-10-23T21:26:16.652Z,3.97
2022-10-23T21:28:55.672Z,2.90
2022-10-23T21:31:34.426Z,3.03
2022-10-23T21:34:02.606Z,3.10
2022-10-23T21:36:34.018Z,3.05
2022-10-23T21:39:04.781Z,2.85
2022-10-23T21:41:34.829Z,3.05
2022-10-23T21:44:04.468Z,3.65
2022-10-23T21:46:34.108Z,3.72
2022-10-23T21:49:02.472Z,2.88
2022-10-23T21:51:32.284Z,2.72
2022-10-23T21:54:00.516Z,3.30
2022-10-23T21:56:32.647Z,2.90
2022-10-23T21:59:02.264Z,2.30
2022-10-23T22:01:30.948Z,2.45
2022-10-23T22:03:59.042Z,2.08
2022-10-23T22:06:29.339Z,1.73
2022-10-23T22:08:59.225Z,2.22
2022-10-23T22:11:28.052Z,2.50
2022-10-23T22:13:57.783Z,2.42
2022-10-23T22:16:25.816Z,2.08
2022-10-23T22:18:54.033Z,2.15
2022-10-23T22:21:23.925Z,1.75
2022-10-23T22:23:52.701Z,2.53
2022-10-23T22:26:24.085Z,2.30
2022-10-23T22:28:54.050Z,1.92
2022-10-23T22:31:25.633Z,2.25
2022-10-23T22:33:54.328Z,1.83
2022-10-23T22:36:22.436Z,2.38
2022-10-23T22:38:50.514Z,2.03
2022-10-23T22:41:19.010Z,2.60
2022-10-23T22:43:47.033Z,2.30
2022-10-23T22:46:16.628Z,2.10
2022-10-23T22:48:46.824Z,2.08
2022-10-23T22:51:16.629Z,2.70
2022-10-23T22:53:45.040Z,1.95
2022-10-23T22:56:15.448Z,2.13
2022-10-23T22:58:43.576Z,1.90
2022-10-23T23:01:15.553Z,1.90
2022-10-23T23:03:45.776Z,1.63
2022-10-23T23:06:13.984Z,1.92
2022-10-23T23:08:42.754Z,2.50
2022-10-23T23:11:14.106Z,1.95
2022-10-23T23:13:42.914Z,2.08
2022-10-23T23:16:18.881Z,2.75
2022-10-23T23:18:48.702Z,2.10
2022-10-23T23:21:17.234Z,2.17
2022-10-23T23:23:45.541Z,2.05
2022-10-23T23:26:14.516Z,2.03
2022-10-23T23:28:42.646Z,1.90
2022-10-23T23:31:13.471Z,2.20
2022-10-23T23:33:41.357Z,2.45
2022-10-23T23:36:13.381Z,2.17
2022-10-23T23:38:41.411Z,1.80
2022-10-23T23:41:13.322Z,1.75
2022-10-23T23:43:41.495Z,2.30
2022-10-23T23:46:09.563Z,1.83
2022-10-23T23:48:37.803Z,2.00
2022-10-23T23:51:06.492Z,2.10
2022-10-23T23:53:35.723Z,2.13
2022-10-23T23:56:03.608Z,1.65
2022-10-23T23:58:31.533Z,2.28
